GMMN/CMN METAR and TAF weather

Enter ICAO airport designator
Station Type Date Time Source
GMMN METAR 2019/12/14 11:00 UTC NOAA

GMMN 141100Z 04011KT 9999 SCT016 16/11 Q1023 NOSIG


Station Type Date Time Source
GMMN Decoded METAR 2019/12/14 11:00 UTC NOAA

Nouasseur, Morocco (GMMN) 33-22N 007-35W 206M
Dec 14, 2019 - 06:00 AM EST / 2019.12.14 1100 UTC
Wind: from the NE (040 degrees) at 13 MPH (11 KT):0
Visibility: greater than 7 mile(s):0
Sky conditions: partly cloudy
Temperature: 60 F (16 C)
Dew Point: 51 F (11 C)
Relative Humidity: 72%
Pressure (altimeter): 30.21 in. Hg (1023 hPa)
ob: GMMN 141100Z 04011KT 9999 SCT016 16/11 Q1023 NOSIG
cycle: 11

Station Type Date Time Source
GMMN TAF 2019/12/14 12:18 UTC NOAA

TAF GMMN 141100Z 1412/1518 04013KT 9999 SCT016
BECMG 1418/1421 06004KT SCT010 BKN016
TEMPO 1422/1510 2000 BR BKN008 PROB40
TEMPO 1502/1508 0600 FG BKN004
FM151000 18004KT 8000 SCT016
TEMPO 1512/1518 30016KT

Example: see airport list